الصفحة الرئيسية
METAR-TAF:

METAR-TAF

مطار :

Trang, تايلاند

دائرة عرض: 07-31N, خط طول: 099-37E, ارتفاع: 14 متر

مراقبة الطقس الحالي

تاريخ ووقت الإصدار 8ساعات و 54 دقيقة قبل الساعة 13:00UTC
رياح هادئة
درجة الحرارة 28°درجة مئوية
الرطوبة 89%
ضغط 1008 hPa
الرؤية 10 كم أو أكثر
غيوم قليلة على ارتفاع 2000 قدم

METAR: VTST 021300Z 00000KT 9999 FEW020 28/26 Q1008 NOSIG

زمن: 04:54 (21:54 UTC)

توقعات

تاريخ ووقت الإصدار 4ساعات و 54 دقيقة قبل الساعة 17:00UTC
التوقعات صالحة من02 الساعة 18 UTC إلى 03 الساعة 18 UTC
ريح عقدة من الشمال
الرؤية 10 كم أو أكثر
غيوم قليلة على ارتفاع 2000 قدم
أصبح
من 03 الساعة 02 UTC إلى 03 الساعة 04 UTC
ريح 8 عقدة من الجنوب الغربي
أصبح
من 03 الساعة 12 UTC إلى 03 الساعة 14 UTC
ريح عقدة من الشمال

TAF: VTST 021700Z 0218/0318 00000KT 9999 FEW020 BECMG 0302/0304 22008KT BECMG 0312/0314 00000KT

أرصاد الطقس والتوقعات من أكثر من 4000 مطار (تقارير الطقس للمطار METAR والتنبؤ بالطقس بالمطارTAF).

المحطات المتاحة هي النقط الصفراء والحمراء على الخريطة.

حرك المؤشر فوق النقطة لمعرفة اسم المحطة.

ثم انقر لمعرفة أرصاد وتوقعات الطقس.

لتغيير الخارطة: اضغط على الأزرار الخضراء مع رمز الصليب الأسود للتكبير. على الزر الأخضر مع شرطة للتصغير، أو على الأسهم الخضراء للخرائط المجاورة.


METAR-TAF: